sensor_id;sensor_type;location;lat;lon;timestamp;temperature;humidity
15203;DHT22;7702;51.046;5.184;2023-02-01T00:01:35;5.50;99.90
15203;DHT22;7702;51.046;5.184;2023-02-01T00:04:01;5.50;99.90
15203;DHT22;7702;51.046;5.184;2023-02-01T00:06:27;5.40;99.90
15203;DHT22;7702;51.046;5.184;2023-02-01T00:08:53;5.40;99.90
15203;DHT22;7702;51.046;5.184;2023-02-01T00:11:20;5.40;99.90
15203;DHT22;7702;51.046;5.184;2023-02-01T00:13:46;5.30;99.90
15203;DHT22;7702;51.046;5.184;2023-02-01T00:16:18;5.30;99.90
15203;DHT22;7702;51.046;5.184;2023-02-01T00:18:45;5.30;99.90
15203;DHT22;7702;51.046;5.184;2023-02-01T00:21:12;5.30;99.90
15203;DHT22;7702;51.046;5.184;2023-02-01T00:23:38;5.20;99.90
15203;DHT22;7702;51.046;5.184;2023-02-01T00:26:06;5.20;99.90
15203;DHT22;7702;51.046;5.184;2023-02-01T00:28:33;5.20;99.90
15203;DHT22;7702;51.046;5.184;2023-02-01T00:31:03;5.20;99.90
15203;DHT22;7702;51.046;5.184;2023-02-01T00:33:31;5.30;99.90
15203;DHT22;7702;51.046;5.184;2023-02-01T00:36:04;5.30;99.90
15203;DHT22;7702;51.046;5.184;2023-02-01T00:38:32;5.40;99.90
15203;DHT22;7702;51.046;5.184;2023-02-01T00:43:31;5.40;99.90
15203;DHT22;7702;51.046;5.184;2023-02-01T00:45:57;5.50;99.90
15203;DHT22;7702;51.046;5.184;2023-02-01T00:48:24;5.60;99.90
15203;DHT22;7702;51.046;5.184;2023-02-01T00:50:50;5.60;99.90
15203;DHT22;7702;51.046;5.184;2023-02-01T00:53:17;5.60;99.90
15203;DHT22;7702;51.046;5.184;2023-02-01T00:55:47;5.70;99.90
15203;DHT22;7702;51.046;5.184;2023-02-01T00:58:12;5.80;99.90
15203;DHT22;7702;51.046;5.184;2023-02-01T01:00:38;5.80;99.90
15203;DHT22;7702;51.046;5.184;2023-02-01T01:03:04;5.80;99.90
15203;DHT22;7702;51.046;5.184;2023-02-01T01:05:46;5.90;99.90
15203;DHT22;7702;51.046;5.184;2023-02-01T01:08:12;5.90;99.90
15203;DHT22;7702;51.046;5.184;2023-02-01T01:10:38;6.00;99.90
15203;DHT22;7702;51.046;5.184;2023-02-01T01:13:04;6.00;99.90
15203;DHT22;7702;51.046;5.184;2023-02-01T01:15:30;6.00;99.90
15203;DHT22;7702;51.046;5.184;2023-02-01T01:17:56;6.10;99.90
15203;DHT22;7702;51.046;5.184;2023-02-01T01:20:22;6.00;99.90
15203;DHT22;7702;51.046;5.184;2023-02-01T01:22:48;6.00;99.90
15203;DHT22;7702;51.046;5.184;2023-02-01T01:25:14;6.00;99.90
15203;DHT22;7702;51.046;5.184;2023-02-01T01:27:39;6.00;99.90
15203;DHT22;7702;51.046;5.184;2023-02-01T01:30:06;5.90;99.90
15203;DHT22;7702;51.046;5.184;2023-02-01T01:32:33;5.80;99.90
15203;DHT22;7702;51.046;5.184;2023-02-01T01:34:59;5.80;99.90
15203;DHT22;7702;51.046;5.184;2023-02-01T01:37:24;5.70;99.90
15203;DHT22;7702;51.046;5.184;2023-02-01T01:39:50;5.70;99.90
15203;DHT22;7702;51.046;5.184;2023-02-01T01:42:16;5.70;99.90
15203;DHT22;7702;51.046;5.184;2023-02-01T01:47:39;5.60;99.90
15203;DHT22;7702;51.046;5.184;2023-02-01T01:50:18;5.60;99.90
15203;DHT22;7702;51.046;5.184;2023-02-01T01:52:46;5.60;99.90
15203;DHT22;7702;51.046;5.184;2023-02-01T01:55:17;5.70;99.90
15203;DHT22;7702;51.046;5.184;2023-02-01T01:57:47;5.60;99.90
15203;DHT22;7702;51.046;5.184;2023-02-01T02:00:17;5.60;99.90
15203;DHT22;7702;51.046;5.184;2023-02-01T02:02:48;5.60;99.90
15203;DHT22;7702;51.046;5.184;2023-02-01T02:05:18;5.60;99.90
15203;DHT22;7702;51.046;5.184;2023-02-01T02:07:47;5.60;99.90
15203;DHT22;7702;51.046;5.184;2023-02-01T02:10:15;5.60;99.90
15203;DHT22;7702;51.046;5.184;2023-02-01T02:12:43;5.50;99.90
15203;DHT22;7702;51.046;5.184;2023-02-01T02:15:11;5.60;99.90
15203;DHT22;7702;51.046;5.184;2023-02-01T02:39:11;5.50;99.90
15203;DHT22;7702;51.046;5.184;2023-02-01T02:44:44;5.50;99.90
15203;DHT22;7702;51.046;5.184;2023-02-01T02:53:12;5.50;99.90
15203;DHT22;7702;51.046;5.184;2023-02-01T02:55:57;5.50;99.90
15203;DHT22;7702;51.046;5.184;2023-02-01T02:58:43;5.50;99.90
15203;DHT22;7702;51.046;5.184;2023-02-01T03:01:30;5.40;99.90
15203;DHT22;7702;51.046;5.184;2023-02-01T03:04:15;5.40;99.90
15203;DHT22;7702;51.046;5.184;2023-02-01T03:06:44;5.40;99.90
15203;DHT22;7702;51.046;5.184;2023-02-01T03:09:30;5.40;99.90
15203;DHT22;7702;51.046;5.184;2023-02-01T03:12:00;5.40;99.90
15203;DHT22;7702;51.046;5.184;2023-02-01T03:14:48;5.40;99.90
15203;DHT22;7702;51.046;5.184;2023-02-01T03:17:20;5.40;99.90
15203;DHT22;7702;51.046;5.184;2023-02-01T03:19:51;5.40;99.90
15203;DHT22;7702;51.046;5.184;2023-02-01T03:22:23;5.40;99.90
15203;DHT22;7702;51.046;5.184;2023-02-01T03:24:51;5.40;99.90
15203;DHT22;7702;51.046;5.184;2023-02-01T03:27:32;5.40;99.90
15203;DHT22;7702;51.046;5.184;2023-02-01T03:32:35;5.40;99.90
15203;DHT22;7702;51.046;5.184;2023-02-01T03:38:24;5.50;99.90
15203;DHT22;7702;51.046;5.184;2023-02-01T03:40:53;5.40;99.90
15203;DHT22;7702;51.046;5.184;2023-02-01T03:43:23;5.40;99.90
15203;DHT22;7702;51.046;5.184;2023-02-01T03:45:56;5.50;99.90
15203;DHT22;7702;51.046;5.184;2023-02-01T03:48:23;5.40;99.90
15203;DHT22;7702;51.046;5.184;2023-02-01T03:50:54;5.30;99.90
15203;DHT22;7702;51.046;5.184;2023-02-01T03:53:23;5.30;99.90
15203;DHT22;7702;51.046;5.184;2023-02-01T03:55:51;5.30;99.90
15203;DHT22;7702;51.046;5.184;2023-02-01T03:58:22;5.40;99.90
15203;DHT22;7702;51.046;5.184;2023-02-01T04:00:54;5.40;99.90
15203;DHT22;7702;51.046;5.184;2023-02-01T04:03:20;5.40;99.90
15203;DHT22;7702;51.046;5.184;2023-02-01T04:05:51;5.30;99.90
15203;DHT22;7702;51.046;5.184;2023-02-01T04:08:18;5.30;99.90
15203;DHT22;7702;51.046;5.184;2023-02-01T04:10:44;5.30;99.90
15203;DHT22;7702;51.046;5.184;2023-02-01T04:13:10;5.30;99.90
15203;DHT22;7702;51.046;5.184;2023-02-01T04:15:36;5.30;99.90
15203;DHT22;7702;51.046;5.184;2023-02-01T04:18:02;5.30;99.90
15203;DHT22;7702;51.046;5.184;2023-02-01T04:20:27;5.20;99.90
15203;DHT22;7702;51.046;5.184;2023-02-01T04:22:53;5.20;99.90
15203;DHT22;7702;51.046;5.184;2023-02-01T04:25:20;5.20;99.90
15203;DHT22;7702;51.046;5.184;2023-02-01T04:27:46;5.20;99.90
15203;DHT22;7702;51.046;5.184;2023-02-01T04:30:12;5.10;99.90
15203;DHT22;7702;51.046;5.184;2023-02-01T04:32:39;5.20;99.90
15203;DHT22;7702;51.046;5.184;2023-02-01T04:35:05;5.30;99.90
15203;DHT22;7702;51.046;5.184;2023-02-01T04:37:31;5.20;99.90
15203;DHT22;7702;51.046;5.184;2023-02-01T04:39:57;5.20;99.90
15203;DHT22;7702;51.046;5.184;2023-02-01T04:42:22;5.30;99.90
15203;DHT22;7702;51.046;5.184;2023-02-01T04:44:48;5.30;99.90
15203;DHT22;7702;51.046;5.184;2023-02-01T04:47:14;5.20;99.90
15203;DHT22;7702;51.046;5.184;2023-02-01T04:49:41;5.20;99.90
15203;DHT22;7702;51.046;5.184;2023-02-01T04:52:07;5.20;99.90
15203;DHT22;7702;51.046;5.184;2023-02-01T04:54:33;5.20;99.90
15203;DHT22;7702;51.046;5.184;2023-02-01T04:56:59;5.20;99.90
15203;DHT22;7702;51.046;5.184;2023-02-01T04:59:25;5.20;99.90
15203;DHT22;7702;51.046;5.184;2023-02-01T05:01:51;5.20;99.90
15203;DHT22;7702;51.046;5.184;2023-02-01T05:04:16;5.30;99.90
15203;DHT22;7702;51.046;5.184;2023-02-01T05:06:44;5.30;99.90
15203;DHT22;7702;51.046;5.184;2023-02-01T05:09:10;5.20;99.90
15203;DHT22;7702;51.046;5.184;2023-02-01T05:11:36;5.20;99.90
15203;DHT22;7702;51.046;5.184;2023-02-01T05:14:21;5.10;99.90
15203;DHT22;7702;51.046;5.184;2023-02-01T05:16:46;5.20;99.90
15203;DHT22;7702;51.046;5.184;2023-02-01T05:19:12;5.30;99.90
15203;DHT22;7702;51.046;5.184;2023-02-01T05:21:38;5.20;99.90
15203;DHT22;7702;51.046;5.184;2023-02-01T05:24:04;5.20;99.90
15203;DHT22;7702;51.046;5.184;2023-02-01T05:26:39;5.20;99.90
15203;DHT22;7702;51.046;5.184;2023-02-01T05:29:05;5.10;99.90
15203;DHT22;7702;51.046;5.184;2023-02-01T05:31:31;5.10;99.90
15203;DHT22;7702;51.046;5.184;2023-02-01T05:33:58;5.10;99.90
15203;DHT22;7702;51.046;5.184;2023-02-01T05:36:24;5.20;99.90
15203;DHT22;7702;51.046;5.184;2023-02-01T05:38:50;5.20;99.90
15203;DHT22;7702;51.046;5.184;2023-02-01T05:41:16;5.10;99.90
15203;DHT22;7702;51.046;5.184;2023-02-01T05:43:41;5.10;99.90
15203;DHT22;7702;51.046;5.184;2023-02-01T05:46:08;5.10;99.90
15203;DHT22;7702;51.046;5.184;2023-02-01T05:48:36;5.10;99.90
15203;DHT22;7702;51.046;5.184;2023-02-01T05:51:01;5.10;99.90
15203;DHT22;7702;51.046;5.184;2023-02-01T05:53:27;5.20;99.90
15203;DHT22;7702;51.046;5.184;2023-02-01T05:55:53;5.10;99.90
15203;DHT22;7702;51.046;5.184;2023-02-01T05:58:18;5.10;99.90
15203;DHT22;7702;51.046;5.184;2023-02-01T06:00:44;5.20;99.90
15203;DHT22;7702;51.046;5.184;2023-02-01T06:03:10;5.10;99.90
15203;DHT22;7702;51.046;5.184;2023-02-01T06:05:36;5.10;99.90
15203;DHT22;7702;51.046;5.184;2023-02-01T06:08:02;5.20;99.90
15203;DHT22;7702;51.046;5.184;2023-02-01T06:10:28;5.00;99.90
15203;DHT22;7702;51.046;5.184;2023-02-01T06:12:54;5.00;99.90
15203;DHT22;7702;51.046;5.184;2023-02-01T06:15:20;5.00;99.90
15203;DHT22;7702;51.046;5.184;2023-02-01T06:17:46;5.00;99.90
15203;DHT22;7702;51.046;5.184;2023-02-01T06:20:13;5.00;99.90
15203;DHT22;7702;51.046;5.184;2023-02-01T06:22:40;5.00;99.90
15203;DHT22;7702;51.046;5.184;2023-02-01T06:25:08;4.90;99.90
15203;DHT22;7702;51.046;5.184;2023-02-01T06:27:34;4.90;99.90
15203;DHT22;7702;51.046;5.184;2023-02-01T06:30:01;4.90;99.90
15203;DHT22;7702;51.046;5.184;2023-02-01T06:32:26;5.00;99.90
15203;DHT22;7702;51.046;5.184;2023-02-01T06:34:52;4.90;99.90
15203;DHT22;7702;51.046;5.184;2023-02-01T06:37:19;4.90;99.90
15203;DHT22;7702;51.046;5.184;2023-02-01T06:39:44;5.00;99.90
15203;DHT22;7702;51.046;5.184;2023-02-01T06:42:10;5.00;99.90
15203;DHT22;7702;51.046;5.184;2023-02-01T06:44:36;5.00;99.90
15203;DHT22;7702;51.046;5.184;2023-02-01T06:47:03;4.90;99.90
15203;DHT22;7702;51.046;5.184;2023-02-01T06:49:29;4.90;99.90
15203;DHT22;7702;51.046;5.184;2023-02-01T06:51:55;5.00;99.90
15203;DHT22;7702;51.046;5.184;2023-02-01T06:54:22;5.00;99.90
15203;DHT22;7702;51.046;5.184;2023-02-01T06:56:47;5.00;99.90
15203;DHT22;7702;51.046;5.184;2023-02-01T06:59:13;5.10;99.90
15203;DHT22;7702;51.046;5.184;2023-02-01T07:01:39;5.00;99.90
15203;DHT22;7702;51.046;5.184;2023-02-01T07:04:05;5.00;99.90
15203;DHT22;7702;51.046;5.184;2023-02-01T07:06:31;5.00;99.90
15203;DHT22;7702;51.046;5.184;2023-02-01T07:08:57;5.00;99.90
15203;DHT22;7702;51.046;5.184;2023-02-01T07:11:23;5.10;99.90
15203;DHT22;7702;51.046;5.184;2023-02-01T07:13:49;5.10;99.90
15203;DHT22;7702;51.046;5.184;2023-02-01T07:16:18;5.00;99.90
15203;DHT22;7702;51.046;5.184;2023-02-01T07:18:44;5.10;99.90
15203;DHT22;7702;51.046;5.184;2023-02-01T07:21:10;5.00;99.90
15203;DHT22;7702;51.046;5.184;2023-02-01T07:23:36;5.00;99.90
15203;DHT22;7702;51.046;5.184;2023-02-01T07:26:04;5.10;99.90
15203;DHT22;7702;51.046;5.184;2023-02-01T07:28:32;5.10;99.90
15203;DHT22;7702;51.046;5.184;2023-02-01T07:31:08;5.00;99.90
15203;DHT22;7702;51.046;5.184;2023-02-01T07:33:34;4.90;99.90
15203;DHT22;7702;51.046;5.184;2023-02-01T07:36:02;5.00;99.90
15203;DHT22;7702;51.046;5.184;2023-02-01T07:38:28;5.00;99.90
15203;DHT22;7702;51.046;5.184;2023-02-01T07:41:02;5.00;99.90
15203;DHT22;7702;51.046;5.184;2023-02-01T07:43:29;5.00;99.90
15203;DHT22;7702;51.046;5.184;2023-02-01T07:45:55;5.00;99.90
15203;DHT22;7702;51.046;5.184;2023-02-01T07:48:22;5.00;99.90
15203;DHT22;7702;51.046;5.184;2023-02-01T07:50:52;5.00;99.90
15203;DHT22;7702;51.046;5.184;2023-02-01T07:53:21;5.10;99.90
15203;DHT22;7702;51.046;5.184;2023-02-01T07:55:47;5.10;99.90
15203;DHT22;7702;51.046;5.184;2023-02-01T07:58:13;5.10;99.90
15203;DHT22;7702;51.046;5.184;2023-02-01T08:00:39;5.10;99.90
15203;DHT22;7702;51.046;5.184;2023-02-01T08:03:23;5.10;99.90
15203;DHT22;7702;51.046;5.184;2023-02-01T08:05:56;5.10;99.90
15203;DHT22;7702;51.046;5.184;2023-02-01T08:08:23;5.20;99.90
15203;DHT22;7702;51.046;5.184;2023-02-01T08:10:49;5.20;99.90
15203;DHT22;7702;51.046;5.184;2023-02-01T08:13:15;5.30;99.90
15203;DHT22;7702;51.046;5.184;2023-02-01T08:15:41;5.30;99.90
15203;DHT22;7702;51.046;5.184;2023-02-01T08:18:07;5.40;99.90
15203;DHT22;7702;51.046;5.184;2023-02-01T08:20:33;5.40;99.90
15203;DHT22;7702;51.046;5.184;2023-02-01T08:23:01;5.50;99.90
15203;DHT22;7702;51.046;5.184;2023-02-01T08:25:28;5.60;99.90
15203;DHT22;7702;51.046;5.184;2023-02-01T08:27:54;5.80;99.90
15203;DHT22;7702;51.046;5.184;2023-02-01T08:30:21;5.90;99.90
15203;DHT22;7702;51.046;5.184;2023-02-01T08:32:47;5.90;99.90
15203;DHT22;7702;51.046;5.184;2023-02-01T08:35:13;6.00;99.90
15203;DHT22;7702;51.046;5.184;2023-02-01T08:37:39;6.10;99.90
15203;DHT22;7702;51.046;5.184;2023-02-01T08:40:05;6.10;99.90
15203;DHT22;7702;51.046;5.184;2023-02-01T08:42:31;6.10;99.90
15203;DHT22;7702;51.046;5.184;2023-02-01T08:45:16;6.20;99.90
15203;DHT22;7702;51.046;5.184;2023-02-01T08:47:42;6.30;99.90
15203;DHT22;7702;51.046;5.184;2023-02-01T08:50:08;6.30;99.90
15203;DHT22;7702;51.046;5.184;2023-02-01T08:52:35;6.30;99.90
15203;DHT22;7702;51.046;5.184;2023-02-01T08:55:01;6.40;99.90
15203;DHT22;7702;51.046;5.184;2023-02-01T08:57:27;6.40;99.90
15203;DHT22;7702;51.046;5.184;2023-02-01T08:59:53;6.40;99.90
15203;DHT22;7702;51.046;5.184;2023-02-01T09:02:19;6.40;99.90
15203;DHT22;7702;51.046;5.184;2023-02-01T09:04:45;6.40;99.90
15203;DHT22;7702;51.046;5.184;2023-02-01T09:07:11;6.50;99.90
15203;DHT22;7702;51.046;5.184;2023-02-01T09:09:38;6.50;99.90
15203;DHT22;7702;51.046;5.184;2023-02-01T09:12:04;6.50;99.90
15203;DHT22;7702;51.046;5.184;2023-02-01T09:14:31;6.50;99.90
15203;DHT22;7702;51.046;5.184;2023-02-01T09:16:57;6.50;99.90
15203;DHT22;7702;51.046;5.184;2023-02-01T09:19:23;6.50;99.90
15203;DHT22;7702;51.046;5.184;2023-02-01T09:21:48;6.50;99.90
15203;DHT22;7702;51.046;5.184;2023-02-01T09:24:14;6.60;99.90
15203;DHT22;7702;51.046;5.184;2023-02-01T09:26:40;6.60;99.90
15203;DHT22;7702;51.046;5.184;2023-02-01T09:29:06;6.70;99.90
15203;DHT22;7702;51.046;5.184;2023-02-01T09:31:38;6.70;99.90
15203;DHT22;7702;51.046;5.184;2023-02-01T09:34:05;6.70;99.90
15203;DHT22;7702;51.046;5.184;2023-02-01T09:36:32;6.70;99.90
15203;DHT22;7702;51.046;5.184;2023-02-01T09:38:59;6.70;99.90
15203;DHT22;7702;51.046;5.184;2023-02-01T09:44:35;6.70;99.90
15203;DHT22;7702;51.046;5.184;2023-02-01T09:47:14;6.80;99.90
15203;DHT22;7702;51.046;5.184;2023-02-01T09:49:52;7.00;99.90
15203;DHT22;7702;51.046;5.184;2023-02-01T09:52:25;7.10;99.90
15203;DHT22;7702;51.046;5.184;2023-02-01T09:54:58;7.30;99.90
15203;DHT22;7702;51.046;5.184;2023-02-01T10:00:06;7.40;99.90
15203;DHT22;7702;51.046;5.184;2023-02-01T10:02:38;7.50;99.90
15203;DHT22;7702;51.046;5.184;2023-02-01T10:05:05;7.60;99.90
15203;DHT22;7702;51.046;5.184;2023-02-01T10:10:29;7.70;99.90
15203;DHT22;7702;51.046;5.184;2023-02-01T10:20:57;8.20;99.90
15203;DHT22;7702;51.046;5.184;2023-02-01T10:28:44;8.50;99.90
15203;DHT22;7702;51.046;5.184;2023-02-01T10:31:11;8.50;99.90
15203;DHT22;7702;51.046;5.184;2023-02-01T10:33:45;8.80;99.90
15203;DHT22;7702;51.046;5.184;2023-02-01T10:36:35;8.90;99.90
15203;DHT22;7702;51.046;5.184;2023-02-01T10:39:03;8.90;99.90
15203;DHT22;7702;51.046;5.184;2023-02-01T10:41:35;9.00;99.90
15203;DHT22;7702;51.046;5.184;2023-02-01T10:44:04;9.20;99.90
15203;DHT22;7702;51.046;5.184;2023-02-01T10:46:31;9.00;99.90
15203;DHT22;7702;51.046;5.184;2023-02-01T10:48:58;9.10;99.90
15203;DHT22;7702;51.046;5.184;2023-02-01T10:54:33;9.30;99.90
15203;DHT22;7702;51.046;5.184;2023-02-01T10:56:59;9.10;99.90
15203;DHT22;7702;51.046;5.184;2023-02-01T10:59:28;8.90;99.90
15203;DHT22;7702;51.046;5.184;2023-02-01T11:02:05;9.10;99.90
15203;DHT22;7702;51.046;5.184;2023-02-01T11:04:40;9.10;99.90
15203;DHT22;7702;51.046;5.184;2023-02-01T11:07:13;9.10;99.90
15203;DHT22;7702;51.046;5.184;2023-02-01T11:09:49;9.10;99.90
15203;DHT22;7702;51.046;5.184;2023-02-01T11:12:32;9.10;99.90
15203;DHT22;7702;51.046;5.184;2023-02-01T11:15:22;8.80;99.90
15203;DHT22;7702;51.046;5.184;2023-02-01T11:17:50;9.20;99.90
15203;DHT22;7702;51.046;5.184;2023-02-01T11:20:41;9.20;99.90
15203;DHT22;7702;51.046;5.184;2023-02-01T11:23:16;9.40;99.90
15203;DHT22;7702;51.046;5.184;2023-02-01T11:26:14;9.60;99.90
15203;DHT22;7702;51.046;5.184;2023-02-01T11:28:57;9.80;99.90
15203;DHT22;7702;51.046;5.184;2023-02-01T11:31:25;9.90;99.90
15203;DHT22;7702;51.046;5.184;2023-02-01T11:34:07;9.90;99.90
15203;DHT22;7702;51.046;5.184;2023-02-01T11:36:35;9.70;99.90
15203;DHT22;7702;51.046;5.184;2023-02-01T11:41:34;9.40;99.90
15203;DHT22;7702;51.046;5.184;2023-02-01T11:49:59;9.20;99.90
15203;DHT22;7702;51.046;5.184;2023-02-01T11:52:36;9.20;99.90
15203;DHT22;7702;51.046;5.184;2023-02-01T11:55:25;9.30;99.90
15203;DHT22;7702;51.046;5.184;2023-02-01T11:58:10;9.30;99.90
15203;DHT22;7702;51.046;5.184;2023-02-01T12:06:53;9.00;99.90
15203;DHT22;7702;51.046;5.184;2023-02-01T12:12:25;9.00;99.90
15203;DHT22;7702;51.046;5.184;2023-02-01T12:34:23;8.80;99.90
15203;DHT22;7702;51.046;5.184;2023-02-01T12:39:42;8.90;99.90
15203;DHT22;7702;51.046;5.184;2023-02-01T12:42:22;8.90;99.90
15203;DHT22;7702;51.046;5.184;2023-02-01T12:45:02;9.00;99.90
15203;DHT22;7702;51.046;5.184;2023-02-01T12:50:19;8.90;99.90
15203;DHT22;7702;51.046;5.184;2023-02-01T12:52:52;8.90;99.90
15203;DHT22;7702;51.046;5.184;2023-02-01T12:55:38;8.90;99.90
15203;DHT22;7702;51.046;5.184;2023-02-01T12:58:15;8.80;99.90
15203;DHT22;7702;51.046;5.184;2023-02-01T13:00:52;8.80;99.90
15203;DHT22;7702;51.046;5.184;2023-02-01T13:04:03;8.80;99.90
15203;DHT22;7702;51.046;5.184;2023-02-01T13:06:33;8.90;99.90
15203;DHT22;7702;51.046;5.184;2023-02-01T13:09:09;8.80;99.90
15203;DHT22;7702;51.046;5.184;2023-02-01T13:11:40;8.80;99.90
15203;DHT22;7702;51.046;5.184;2023-02-01T13:14:24;8.80;99.90
15203;DHT22;7702;51.046;5.184;2023-02-01T13:16:59;8.90;99.90
15203;DHT22;7702;51.046;5.184;2023-02-01T13:22:05;9.00;99.90
15203;DHT22;7702;51.046;5.184;2023-02-01T13:24:41;9.10;99.90
15203;DHT22;7702;51.046;5.184;2023-02-01T13:27:12;9.10;99.90
15203;DHT22;7702;51.046;5.184;2023-02-01T13:29:46;9.00;99.90
15203;DHT22;7702;51.046;5.184;2023-02-01T13:35:03;9.00;99.90
15203;DHT22;7702;51.046;5.184;2023-02-01T13:43:27;9.00;99.90
15203;DHT22;7702;51.046;5.184;2023-02-01T13:45:57;9.00;99.90
15203;DHT22;7702;51.046;5.184;2023-02-01T13:48:47;9.00;99.90
15203;DHT22;7702;51.046;5.184;2023-02-01T13:51:14;9.00;99.90
15203;DHT22;7702;51.046;5.184;2023-02-01T13:53:48;9.00;99.90
15203;DHT22;7702;51.046;5.184;2023-02-01T13:56:19;9.00;99.90
15203;DHT22;7702;51.046;5.184;2023-02-01T13:58:48;9.10;99.90
15203;DHT22;7702;51.046;5.184;2023-02-01T14:03:56;9.10;99.90
15203;DHT22;7702;51.046;5.184;2023-02-01T14:21:59;9.20;99.90
15203;DHT22;7702;51.046;5.184;2023-02-01T14:24:32;9.20;99.90
15203;DHT22;7702;51.046;5.184;2023-02-01T14:29:41;9.20;99.90
15203;DHT22;7702;51.046;5.184;2023-02-01T14:32:18;9.10;99.90
15203;DHT22;7702;51.046;5.184;2023-02-01T14:34:49;9.20;99.90
15203;DHT22;7702;51.046;5.184;2023-02-01T14:55:42;9.10;99.90
15203;DHT22;7702;51.046;5.184;2023-02-01T15:04:16;9.00;99.90
15203;DHT22;7702;51.046;5.184;2023-02-01T15:06:51;9.00;99.90
15203;DHT22;7702;51.046;5.184;2023-02-01T15:09:18;9.00;99.90
15203;DHT22;7702;51.046;5.184;2023-02-01T15:14:36;9.00;99.90
15203;DHT22;7702;51.046;5.184;2023-02-01T15:17:03;9.00;99.90
15203;DHT22;7702;51.046;5.184;2023-02-01T15:19:56;9.00;99.90
15203;DHT22;7702;51.046;5.184;2023-02-01T15:22:22;9.00;99.90
15203;DHT22;7702;51.046;5.184;2023-02-01T15:24:56;9.00;99.90
15203;DHT22;7702;51.046;5.184;2023-02-01T15:27:23;9.00;99.90
15203;DHT22;7702;51.046;5.184;2023-02-01T15:29:49;9.00;99.90
15203;DHT22;7702;51.046;5.184;2023-02-01T15:32:36;9.00;99.90
15203;DHT22;7702;51.046;5.184;2023-02-01T15:35:05;8.90;99.90
15203;DHT22;7702;51.046;5.184;2023-02-01T15:37:31;8.90;99.90
15203;DHT22;7702;51.046;5.184;2023-02-01T15:45:19;9.00;99.90
15203;DHT22;7702;51.046;5.184;2023-02-01T15:47:49;8.90;99.90
15203;DHT22;7702;51.046;5.184;2023-02-01T15:50:17;8.90;99.90
15203;DHT22;7702;51.046;5.184;2023-02-01T15:52:47;8.90;99.90
15203;DHT22;7702;51.046;5.184;2023-02-01T15:55:34;8.90;99.90
15203;DHT22;7702;51.046;5.184;2023-02-01T15:58:05;8.90;99.90
15203;DHT22;7702;51.046;5.184;2023-02-01T16:03:37;8.80;99.90
15203;DHT22;7702;51.046;5.184;2023-02-01T16:06:26;8.80;99.90
15203;DHT22;7702;51.046;5.184;2023-02-01T16:08:59;8.90;99.90
15203;DHT22;7702;51.046;5.184;2023-02-01T16:11:29;8.90;99.90
15203;DHT22;7702;51.046;5.184;2023-02-01T16:14:01;8.80;99.90
15203;DHT22;7702;51.046;5.184;2023-02-01T16:16:28;8.80;99.90
15203;DHT22;7702;51.046;5.184;2023-02-01T16:18:54;8.80;99.90
15203;DHT22;7702;51.046;5.184;2023-02-01T16:21:20;8.80;99.90
15203;DHT22;7702;51.046;5.184;2023-02-01T16:23:50;8.80;99.90
15203;DHT22;7702;51.046;5.184;2023-02-01T16:26:17;8.70;99.90
15203;DHT22;7702;51.046;5.184;2023-02-01T16:28:42;8.70;99.90
15203;DHT22;7702;51.046;5.184;2023-02-01T16:31:14;8.70;99.90
15203;DHT22;7702;51.046;5.184;2023-02-01T16:33:50;8.70;99.90
15203;DHT22;7702;51.046;5.184;2023-02-01T16:36:17;8.60;99.90
15203;DHT22;7702;51.046;5.184;2023-02-01T16:38:43;8.60;99.90
15203;DHT22;7702;51.046;5.184;2023-02-01T16:41:14;8.60;99.90
15203;DHT22;7702;51.046;5.184;2023-02-01T16:43:40;8.50;99.90
15203;DHT22;7702;51.046;5.184;2023-02-01T16:46:13;8.50;99.90
15203;DHT22;7702;51.046;5.184;2023-02-01T16:48:42;8.50;99.90
15203;DHT22;7702;51.046;5.184;2023-02-01T16:51:10;8.40;99.90
15203;DHT22;7702;51.046;5.184;2023-02-01T16:53:37;8.40;99.90
15203;DHT22;7702;51.046;5.184;2023-02-01T16:56:16;8.40;99.90
15203;DHT22;7702;51.046;5.184;2023-02-01T16:58:43;8.40;99.90
15203;DHT22;7702;51.046;5.184;2023-02-01T17:01:13;8.40;99.90
15203;DHT22;7702;51.046;5.184;2023-02-01T17:03:40;8.40;99.90
15203;DHT22;7702;51.046;5.184;2023-02-01T17:06:08;8.40;99.90
15203;DHT22;7702;51.046;5.184;2023-02-01T17:08:37;8.40;99.90
15203;DHT22;7702;51.046;5.184;2023-02-01T17:11:05;8.40;99.90
15203;DHT22;7702;51.046;5.184;2023-02-01T17:13:31;8.30;99.90
15203;DHT22;7702;51.046;5.184;2023-02-01T17:16:03;8.30;99.90
15203;DHT22;7702;51.046;5.184;2023-02-01T17:18:33;8.30;99.90
15203;DHT22;7702;51.046;5.184;2023-02-01T17:20:59;8.20;99.90
15203;DHT22;7702;51.046;5.184;2023-02-01T17:23:26;8.20;99.90
15203;DHT22;7702;51.046;5.184;2023-02-01T17:25:52;8.20;99.90
15203;DHT22;7702;51.046;5.184;2023-02-01T17:28:18;8.20;99.90
15203;DHT22;7702;51.046;5.184;2023-02-01T17:30:44;8.10;99.90
15203;DHT22;7702;51.046;5.184;2023-02-01T17:33:36;8.10;99.90
15203;DHT22;7702;51.046;5.184;2023-02-01T17:36:03;8.10;99.90
15203;DHT22;7702;51.046;5.184;2023-02-01T17:38:30;8.00;99.90
15203;DHT22;7702;51.046;5.184;2023-02-01T17:40:56;8.00;99.90
15203;DHT22;7702;51.046;5.184;2023-02-01T17:43:24;8.00;99.90
15203;DHT22;7702;51.046;5.184;2023-02-01T17:48:22;8.10;99.90
15203;DHT22;7702;51.046;5.184;2023-02-01T17:50:49;8.20;99.90
15203;DHT22;7702;51.046;5.184;2023-02-01T17:53:19;8.20;99.90
15203;DHT22;7702;51.046;5.184;2023-02-01T17:55:49;8.10;99.90
15203;DHT22;7702;51.046;5.184;2023-02-01T17:58:16;8.20;99.90
15203;DHT22;7702;51.046;5.184;2023-02-01T18:00:43;8.20;99.90
15203;DHT22;7702;51.046;5.184;2023-02-01T18:03:23;8.20;99.90
15203;DHT22;7702;51.046;5.184;2023-02-01T18:05:51;8.20;99.90
15203;DHT22;7702;51.046;5.184;2023-02-01T18:08:29;8.10;99.90
15203;DHT22;7702;51.046;5.184;2023-02-01T18:10:59;8.20;99.90
15203;DHT22;7702;51.046;5.184;2023-02-01T18:13:30;8.10;99.90
15203;DHT22;7702;51.046;5.184;2023-02-01T18:15:57;8.20;99.90
15203;DHT22;7702;51.046;5.184;2023-02-01T18:18:28;8.20;99.90
15203;DHT22;7702;51.046;5.184;2023-02-01T18:20:55;8.20;99.90
15203;DHT22;7702;51.046;5.184;2023-02-01T18:23:22;8.30;99.90
15203;DHT22;7702;51.046;5.184;2023-02-01T18:25:50;8.20;99.90
15203;DHT22;7702;51.046;5.184;2023-02-01T18:28:17;8.30;99.90
15203;DHT22;7702;51.046;5.184;2023-02-01T18:30:45;8.30;99.90
15203;DHT22;7702;51.046;5.184;2023-02-01T18:33:16;8.30;99.90
15203;DHT22;7702;51.046;5.184;2023-02-01T18:35:42;8.30;99.90
15203;DHT22;7702;51.046;5.184;2023-02-01T18:38:08;8.30;99.90
15203;DHT22;7702;51.046;5.184;2023-02-01T18:40:53;8.30;99.90
15203;DHT22;7702;51.046;5.184;2023-02-01T18:43:19;8.40;99.90
15203;DHT22;7702;51.046;5.184;2023-02-01T18:45:46;8.30;99.90
15203;DHT22;7702;51.046;5.184;2023-02-01T18:48:14;8.30;99.90
15203;DHT22;7702;51.046;5.184;2023-02-01T18:50:44;8.30;99.90
15203;DHT22;7702;51.046;5.184;2023-02-01T18:53:18;8.30;99.90
15203;DHT22;7702;51.046;5.184;2023-02-01T18:55:52;8.40;99.90
15203;DHT22;7702;51.046;5.184;2023-02-01T18:58:18;8.40;99.90
15203;DHT22;7702;51.046;5.184;2023-02-01T19:00:45;8.40;99.90
15203;DHT22;7702;51.046;5.184;2023-02-01T19:03:14;8.40;99.90
15203;DHT22;7702;51.046;5.184;2023-02-01T19:05:41;8.40;99.90
15203;DHT22;7702;51.046;5.184;2023-02-01T19:08:07;8.40;99.90
15203;DHT22;7702;51.046;5.184;2023-02-01T19:10:33;8.40;99.90
15203;DHT22;7702;51.046;5.184;2023-02-01T19:13:00;8.40;99.90
15203;DHT22;7702;51.046;5.184;2023-02-01T19:15:26;8.40;99.90
15203;DHT22;7702;51.046;5.184;2023-02-01T19:17:53;8.40;99.90